• Join FlightAware (Why Join?)
  • Login
  • US Flag 
01:58PM EDT


 

Airport Tracker/Info


-or-


 

Live Flight TrackerFlight Track Log ✈ UAL4236 ✈ 30-Aug-2013 ✈ KELP - KIAH

Flight Track Log - Related Links

Times and Time Zones

All times are in EDT time to prevent confusion due to time zone crossing. See the UAL4236 flight status page for this flight to view local times or setup timezone preferences in your user account.

Time Position Orientation Groundspeed Altitude Reporting Facility
EDT Latitude Longitude Course Direction KTS MPH feet Rate Location/Type
12:16PM 31.7431 -106.4186 159° South 245 282 7,100  Level Albuquerque Center
12:17PM 31.7669 -106.0441 103° East  Level Estimated
12:17PM 31.7069 -106.3492 121° Southeast 248 285 8,500  Level Albuquerque Center
12:18PM 31.7533 -105.9334 96° East  Level Estimated
12:18PM 31.6875 -106.2575 104° East 286 329 10,200  Level Albuquerque Center
12:19PM 31.7368 -105.8233 100° East  Level FlightAware Approximate
12:19PM 31.6311 -106.1733 128° Southeast 318 366 11,300  Level Albuquerque Center
12:20PM 31.7197 -105.7048 100° East  Level FlightAware Approximate
12:20PM 31.5736 -106.0808 126° Southeast 342 394 12,300  Level Albuquerque Center
12:21PM 31.5133 -105.9839 126° Southeast 362 417 13,400 1,140 Climbing Albuquerque Center
12:22PM 31.4392 -105.8656 126° Southeast 373 429 14,700 1,200 Climbing Albuquerque Center
12:23PM 31.3894 -105.7578 118° Southeast 377 434 15,900 1,080 Climbing Albuquerque Center
12:24PM 31.3575 -105.6383 107° East 382 440 17,000 960 Climbing Albuquerque Center
12:25PM 31.3508 -105.5136 94° East 383 441 17,900 960 Climbing Albuquerque Center
12:26PM 31.3433 -105.3906 94° East 381 438 19,000 1,020 Climbing Albuquerque Center
12:27PM 31.3369 -105.2664 93° East 380 437 20,100 1,080 Climbing Albuquerque Center
12:28PM 31.3278 -105.1169 94° East 381 438 21,300 1,080 Climbing Albuquerque Center
12:29PM 31.3208 -104.9919 94° East 382 440 22,400 960 Climbing Albuquerque Center
12:30PM 31.3125 -104.8669 94° East 383 441 23,400 960 Climbing Albuquerque Center
12:31PM 31.3056 -104.7419 94° East 384 442 24,400 960 Climbing Albuquerque Center
12:32PM 31.2978 -104.6178 94° East 383 441 25,500 960 Climbing Albuquerque Center
12:33PM 31.2903 -104.4939 94° East 382 440 26,500 960 Climbing Albuquerque Center
12:34PM 31.2833 -104.3706 94° East 381 438 27,500 1,080 Climbing Albuquerque Center
12:35PM 31.2736 -104.2236 94° East 378 435 28,800 1,080 Climbing Albuquerque Center
12:36PM 31.2650 -104.1011 95° East 378 435 29,800 960 Climbing Albuquerque Center
12:37PM 31.2569 -103.9786 94° East 379 436 30,800 960 Climbing Albuquerque Center
12:38PM 31.2483 -103.8569 95° East 377 434 31,800 1,020 Climbing Albuquerque Center
12:39PM 31.2383 -103.7200 95° East 374 430 33,000 1,020 Climbing Albuquerque Center
12:40PM 31.2281 -103.6011 96° East 371 427 34,000 720 Climbing Albuquerque Center
12:41PM 31.2206 -103.4819 94° East 369 425 34,600 480 Climbing Albuquerque Center
12:43PM 31.2111 -103.3592 95° East 377 434 35,000 180 Climbing Albuquerque Center
12:44PM 31.2019 -103.2297 95° East 397 457 35,000  Level Albuquerque Center
12:45PM 31.1894 -103.0947 96° East 411 473 35,000  Level Albuquerque Center
12:46PM 31.1783 -102.9269 94° East 423 487 35,000  Level Albuquerque Center
12:47PM 31.1669 -102.7842 95° East 434 499 35,000  Level Albuquerque Center
12:48PM 31.1550 -102.6403 96° East 442 509 35,000  Level Albuquerque Center
12:49PM 31.1456 -102.4925 94° East 457 526 35,000  Level Albuquerque Center
12:50PM 31.1333 -102.3456 96° East 460 529 35,000  Level Albuquerque Center
12:50PM 31.1233 -102.2653 98° East 453 521 35,000  Level Houston Center
12:51PM 31.1111 -102.0919 95° East 457 526 35,000  Level Houston Center
12:52PM 31.1003 -101.9483 95° East 452 520 35,000  Level Houston Center
12:53PM 31.0878 -101.8050 96° East 448 516 35,000  Level Houston Center
12:54PM 31.0753 -101.6603 96° East 450 518 35,000  Level Houston Center
12:56PM 31.0606 -101.4869 96° East 450 518 35,000  Level Houston Center
12:57PM 31.0478 -101.3414 96° East 451 519 35,000  Level Houston Center
12:58PM 31.0339 -101.1869 96° East 453 521 35,000  Level Houston Center
12:59PM 31.0214 -101.0403 96° East 454 522 35,000  Level Houston Center
01:00PM 31.0081 -100.8947 96° East 452 520 35,000  Level Houston Center
01:01PM 30.9953 -100.7486 96° East 453 521 35,000  Level Houston Center
01:02PM 30.9811 -100.6044 97° East 449 517 35,000  Level Houston Center
01:03PM 30.9683 -100.4578 96° East 453 521 35,000  Level Houston Center
01:04PM 30.9533 -100.3122 97° East 452 520 35,000  Level Houston Center
01:05PM 30.9367 -100.1375 96° East 453 521 35,000  Level Houston Center
01:06PM 30.9222 -99.9914 97° East 452 520 35,000  Level Houston Center
01:07PM 30.9086 -99.8464 96° East 451 519 35,000  Level Houston Center
01:08PM 30.8933 -99.7003 97° East 453 521 35,000  Level Houston Center
01:09PM 30.8789 -99.5536 97° East 455 524 35,000  Level Houston Center
01:10PM 30.8644 -99.4081 97° East 453 521 35,000  Level Houston Center
01:11PM 30.8547 -99.2311 94° East 456 525 35,000  Level Houston Center
01:12PM 30.8564 -99.1006 89° East 455 524 35,000  Level Houston Center
01:13PM 30.8561 -98.9283 90° East 454 522 35,000  Level Houston Center
01:14PM 30.8572 -98.7800 89° East 454 522 35,000  Level Houston Center
01:15PM 30.8567 -98.6314 90° East 455 524 35,000  Level Houston Center
01:16PM 30.8553 -98.4819 91° East 456 525 35,000  Level Houston Center
01:17PM 30.8542 -98.3331 90° East 455 524 35,000  Level Houston Center
01:18PM 30.8531 -98.1828 90° East 459 528 35,000  Level Houston Center
01:19PM 30.8522 -98.0336 90° East 458 527 35,000  Level Houston Center
01:20PM 30.8506 -97.8583 91° East 460 529 35,000  Level Houston Center
01:21PM 30.8492 -97.7108 91° East 456 525 35,000  Level Houston Center
01:22PM 30.8464 -97.5628 91° East 456 525 35,000  Level Houston Center
01:23PM 30.8433 -97.4156 91° East 456 525 35,000 -180 Level Houston Center
01:25PM 30.8358 -97.2536 93° East 460 529 34,700 -720 Descending Houston Center
01:26PM 30.7928 -97.1011 108° East 467 537 33,600 -1,800 Descending Houston Center
01:27PM 30.7558 -96.9603 107° East 456 525 31,000 -2,520 Descending Houston Center
01:28PM 30.7172 -96.8233 108° East 450 518 28,400 -2,580 Descending Houston Center
01:28PM 30.6858 -96.7122 108° East 450 518 26,400 -2,520 Descending Houston Center
01:30PM 30.6408 -96.5386 107° East 460 529 23,300 -2,580 Descending Houston Center
01:31PM 30.5986 -96.3894 108° East 431 496 20,400 -2,760 Descending Houston Center
01:32PM 30.5622 -96.2528 107° East 424 488 17,700 -2,460 Descending Houston Center
01:33PM 30.5269 -96.1331 109° East 394 453 15,400 -2,160 Descending Houston Center
01:34PM 30.4894 -95.9919 107° East 391 450 13,100 -1,560 Descending Houston Center
01:35PM 30.4544 -95.8775 110° East 367 422 12,100 -600 Descending Houston Center
01:36PM 30.3953 -95.8022 132° Southeast 332 382 11,900 -600 Descending Houston Center
01:37PM 30.3356 -95.7394 138° Southeast 293 337 11,000 -960 Descending Houston Center
01:38PM 30.2747 -95.6769 138° Southeast 291 335 10,000 -1,020 Descending Houston Center
01:39PM 30.2150 -95.6150 138° Southeast 290 334 9,000 -1,020 Descending Houston Center
01:40PM 30.1561 -95.5519 137° Southeast 289 333 7,900 -1,020 Descending Houston Center
01:41PM 30.1083 -95.4825 128° Southeast 284 327 7,000 -480 Descending Houston Center
01:42PM 30.1058 -95.3756 92° East 280 322 7,000 -360 Level Houston Center
01:43PM 30.1064 -95.2858 90° East 280 322 6,300 -840 Descending Houston Center
01:44PM 30.1061 -95.2042 90° East 262 302 5,300 -720 Descending Houston Center
01:45PM 30.1061 -95.1328 90° East 232 267 5,000 -180 Descending Houston Center
01:46PM 30.0939 -95.0572 101° East 242 278 5,000 -420 Level Houston Center
01:47PM 30.0319 -95.0600 182° South 226 260 4,200 -1,140 Descending Houston Center
01:48PM 29.9964 -95.1269 238° Southwest 230 265 2,800 -1,020 Descending Houston Center
01:49PM 29.9947 -95.1997 269° West 220 253 2,100 -780 Descending Houston Center
01:50PM 29.9942 -95.2633 269° West 213 245 1,200 -840 Descending Houston Center
01:51PM 29.9936 -95.3036 269° West 133 153 500 -480 Descending Houston Center
01:52PM 29.9956 -95.3603 272° West 163 188 300 -180 Descending Houston Center